createdAt,value
2023-04-01T06:32:40.380Z,975.36
2023-04-01T06:33:40.478Z,975.34
2023-04-01T06:34:40.391Z,975.34
2023-04-01T06:35:40.529Z,975.36
2023-04-01T06:36:40.486Z,975.30
2023-04-01T06:37:40.572Z,975.22
2023-04-01T06:38:41.554Z,975.30
2023-04-01T06:39:41.481Z,975.30
2023-04-01T06:40:41.515Z,975.27
2023-04-01T06:41:41.441Z,975.24
2023-04-01T06:42:41.463Z,975.34
2023-04-01T06:43:42.081Z,975.28
2023-04-01T06:44:41.492Z,975.28
2023-04-01T06:45:41.858Z,975.26
2023-04-01T06:46:41.692Z,975.31
2023-04-01T06:47:42.509Z,975.25
2023-04-01T06:48:41.403Z,975.33
2023-04-01T06:49:41.659Z,975.32
2023-04-01T06:50:41.434Z,975.34
2023-04-01T06:51:45.213Z,975.28
2023-04-01T06:52:42.088Z,975.26
2023-04-01T06:53:41.371Z,975.26
2023-04-01T06:54:41.435Z,975.28
2023-04-01T06:55:41.415Z,975.25
2023-04-01T06:56:41.370Z,975.27
2023-04-01T06:57:41.394Z,975.29
2023-04-01T06:58:41.320Z,975.28
2023-04-01T06:59:41.293Z,975.29
2023-04-01T07:00:41.242Z,975.24
2023-04-01T07:01:41.557Z,975.32
2023-04-01T07:02:41.263Z,975.28
2023-04-01T07:03:41.252Z,975.26
2023-04-01T07:04:41.904Z,975.30
2023-04-01T07:05:41.331Z,975.27
2023-04-01T07:06:41.203Z,975.28
2023-04-01T07:07:41.214Z,975.30
2023-04-01T07:08:41.650Z,975.27
2023-04-01T07:09:41.169Z,975.31
2023-04-01T07:10:44.901Z,975.16
2023-04-01T07:11:41.161Z,975.24
2023-04-01T07:12:41.145Z,975.28
2023-04-01T07:13:41.099Z,975.26
2023-04-01T07:14:41.287Z,975.23
2023-04-01T07:15:41.082Z,975.24
2023-04-01T07:16:41.224Z,975.26
2023-04-01T07:17:41.797Z,975.26
2023-04-01T07:18:41.045Z,975.29
2023-04-01T07:19:41.251Z,975.34
2023-04-01T07:20:41.033Z,975.33
2023-04-01T07:21:41.001Z,975.29
2023-04-01T07:22:40.999Z,975.28
2023-04-01T07:23:40.980Z,975.34
2023-04-01T07:24:41.066Z,975.32
2023-04-01T07:25:40.972Z,975.35
2023-04-01T07:26:40.979Z,975.37
2023-04-01T07:27:41.001Z,975.40
2023-04-01T07:28:41.996Z,975.39
2023-04-01T07:29:41.195Z,975.42
2023-04-01T07:30:41.046Z,975.31
2023-04-01T07:31:41.647Z,975.39
2023-04-01T07:32:40.953Z,975.41
2023-04-01T07:33:41.004Z,975.42
2023-04-01T07:34:40.891Z,975.37
2023-04-01T07:35:40.945Z,975.45
2023-04-01T07:36:40.910Z,975.39
2023-04-01T07:37:40.846Z,975.42
2023-04-01T07:38:41.054Z,975.44
2023-04-01T07:39:40.906Z,975.43
2023-04-01T07:40:41.631Z,975.44
2023-04-01T07:41:40.850Z,975.44
2023-04-01T07:42:40.873Z,975.47
2023-04-01T07:43:40.825Z,975.49
2023-04-01T07:44:40.928Z,975.50
2023-04-01T07:45:40.913Z,975.50
2023-04-01T07:46:40.855Z,975.54
2023-04-01T07:47:40.792Z,975.58
2023-04-01T07:48:40.750Z,975.55
2023-04-01T07:49:40.841Z,975.58
2023-04-01T07:50:40.756Z,975.56
2023-04-01T07:51:40.725Z,975.58
2023-04-01T07:52:40.740Z,975.59
2023-04-01T07:53:40.717Z,975.67
2023-04-01T07:54:40.802Z,975.54
2023-04-01T07:55:40.672Z,975.64
2023-04-01T07:56:40.681Z,975.64
2023-04-01T07:57:40.724Z,975.58
2023-04-01T07:58:40.649Z,975.65
2023-04-01T07:59:40.675Z,975.66
2023-04-01T08:00:40.702Z,975.63
2023-04-01T08:01:40.604Z,975.65
2023-04-01T08:02:40.810Z,975.65
2023-04-01T08:03:40.782Z,975.71
2023-04-01T08:04:40.661Z,975.68
2023-04-01T08:05:40.590Z,975.68
2023-04-01T08:06:40.601Z,975.67
2023-04-01T08:07:40.587Z,975.71
2023-04-01T08:08:40.625Z,975.68
2023-04-01T08:09:40.604Z,975.69
2023-04-01T08:10:40.858Z,975.66
2023-04-01T08:11:41.852Z,975.68
2023-04-01T08:12:40.538Z,975.72
2023-04-01T08:13:40.525Z,975.72
2023-04-01T08:14:40.512Z,975.73
2023-04-01T08:15:40.488Z,975.75
2023-04-01T08:16:40.624Z,975.73
2023-04-01T08:17:40.485Z,975.77
2023-04-01T08:18:40.529Z,975.75
2023-04-01T08:19:40.500Z,975.85
2023-04-01T08:20:40.461Z,975.78
2023-04-01T08:21:40.449Z,975.84
2023-04-01T08:22:40.406Z,975.80
2023-04-01T08:23:40.393Z,975.87
2023-04-01T08:24:46.990Z,975.85
2023-04-01T08:25:42.459Z,975.86
2023-04-01T08:26:41.393Z,975.89
2023-04-01T08:27:40.365Z,975.83
2023-04-01T08:28:40.336Z,975.77
2023-04-01T08:29:40.310Z,975.84
2023-04-01T08:30:40.391Z,975.86
2023-04-01T08:31:40.407Z,975.85
2023-04-01T08:32:40.342Z,975.87
2023-04-01T08:33:40.316Z,975.86
2023-04-01T08:34:40.322Z,975.90
2023-04-01T08:35:40.644Z,975.84
2023-04-01T08:36:40.278Z,975.89
2023-04-01T08:37:40.245Z,975.89
2023-04-01T08:38:40.457Z,975.86
2023-04-01T08:39:40.288Z,975.82
2023-04-01T08:40:40.214Z,975.82
2023-04-01T08:41:40.246Z,975.83
2023-04-01T08:42:40.371Z,975.75
2023-04-01T08:43:40.175Z,975.83
2023-04-01T08:44:40.294Z,975.84
2023-04-01T08:45:40.260Z,975.86
2023-04-01T08:46:40.150Z,975.85
2023-04-01T08:47:40.188Z,975.84
2023-04-01T08:48:40.182Z,975.82
2023-04-01T08:49:40.254Z,975.80
2023-04-01T08:50:40.145Z,975.81
2023-04-01T08:51:40.157Z,975.75
2023-04-01T08:52:40.135Z,975.78
2023-04-01T08:53:40.156Z,975.79
2023-04-01T08:54:40.135Z,975.77
2023-04-01T08:55:40.092Z,975.80
2023-04-01T08:56:40.121Z,975.79
2023-04-01T08:57:40.106Z,975.78
2023-04-01T08:58:40.077Z,975.81
2023-04-01T08:59:40.031Z,975.83
2023-04-01T09:00:40.037Z,975.86
2023-04-01T09:01:40.076Z,975.87
2023-04-01T09:02:40.082Z,975.86
2023-04-01T09:03:40.085Z,975.92
2023-04-01T09:04:40.043Z,975.86
2023-04-01T09:05:39.959Z,975.85
2023-04-01T09:06:39.972Z,975.81
2023-04-01T09:07:39.995Z,975.88
2023-04-01T09:08:40.055Z,975.91
2023-04-01T09:09:39.953Z,975.88
2023-04-01T09:10:39.937Z,975.83
2023-04-01T09:11:40.041Z,975.90
2023-04-01T09:12:39.904Z,975.92
2023-04-01T09:13:39.893Z,975.87
2023-04-01T09:14:39.918Z,975.83
2023-04-01T09:15:39.906Z,975.87
2023-04-01T09:16:39.884Z,975.90
2023-04-01T09:17:39.991Z,975.85
2023-04-01T09:18:39.831Z,975.87
2023-04-01T09:19:39.890Z,975.88
2023-04-01T09:20:39.869Z,975.89
2023-04-01T09:21:39.829Z,975.89
2023-04-01T09:22:39.927Z,975.89
2023-04-01T09:23:39.814Z,975.93
2023-04-01T09:24:39.878Z,975.95
2023-04-01T09:25:39.825Z,975.84
2023-04-01T09:26:39.814Z,975.84
2023-04-01T09:27:39.826Z,975.88
2023-04-01T09:28:39.813Z,975.95
2023-04-01T09:29:39.811Z,975.90
2023-04-01T09:30:39.780Z,975.93
2023-04-01T09:31:39.761Z,975.96
2023-04-01T09:32:39.728Z,975.89
2023-04-01T09:33:39.730Z,975.91
2023-04-01T09:34:39.723Z,975.93
2023-04-01T09:35:39.812Z,975.96
2023-04-01T09:36:39.654Z,975.98
2023-04-01T09:37:39.689Z,975.94
2023-04-01T09:38:39.698Z,975.96
2023-04-01T09:39:39.716Z,975.95
2023-04-01T09:40:40.553Z,976.02
2023-04-01T09:41:39.621Z,976.09
2023-04-01T09:42:39.796Z,976.00
2023-04-01T09:43:39.599Z,976.03
2023-04-01T09:44:40.440Z,976.06
2023-04-01T09:45:39.709Z,976.03
2023-04-01T09:46:39.633Z,976.03
2023-04-01T09:47:39.647Z,976.06
2023-04-01T09:48:39.589Z,976.01
2023-04-01T09:49:39.595Z,976.09
2023-04-01T09:50:39.574Z,976.03
2023-04-01T09:51:39.566Z,976.03
2023-04-01T09:52:39.619Z,976.10
2023-04-01T09:53:39.503Z,976.03
2023-04-01T09:54:39.538Z,976.05
2023-04-01T09:55:39.479Z,976.08
2023-04-01T09:56:39.534Z,976.07
2023-04-01T09:57:39.566Z,976.09
2023-04-01T09:58:43.389Z,976.06
2023-04-01T09:59:39.547Z,976.11
2023-04-01T10:00:39.458Z,976.12
2023-04-01T10:01:39.537Z,976.13
2023-04-01T10:02:39.423Z,976.14
2023-04-01T10:03:39.429Z,976.16
2023-04-01T10:04:39.532Z,976.19
2023-04-01T10:05:39.548Z,976.19
2023-04-01T10:06:39.426Z,976.18
2023-04-01T10:07:39.382Z,976.12
2023-04-01T10:08:39.427Z,976.19
2023-04-01T10:09:39.361Z,976.18
2023-04-01T10:10:39.467Z,976.24
2023-04-01T10:11:39.375Z,976.23
2023-04-01T10:12:39.327Z,976.21
2023-04-01T10:13:39.308Z,976.16
2023-04-01T10:14:39.416Z,976.20
2023-04-01T10:15:39.446Z,976.23
2023-04-01T10:16:39.467Z,976.21
2023-04-01T10:17:39.429Z,976.20
2023-04-01T10:18:39.305Z,976.23
2023-04-01T10:19:39.305Z,976.22
2023-04-01T10:20:39.337Z,976.20
2023-04-01T10:21:39.262Z,976.16
2023-04-01T10:22:39.246Z,976.22
2023-04-01T10:23:39.206Z,976.14
2023-04-01T10:24:39.279Z,976.27
2023-04-01T10:25:39.263Z,976.16
2023-04-01T10:26:40.160Z,976.15
2023-04-01T10:27:39.260Z,976.20
2023-04-01T10:28:39.231Z,976.20
2023-04-01T10:29:39.167Z,976.18
2023-04-01T10:30:39.175Z,976.20
2023-04-01T10:31:39.322Z,976.15
2023-04-01T10:32:39.183Z,976.19
2023-04-01T10:33:39.152Z,976.18
2023-04-01T10:34:39.114Z,976.20
2023-04-01T10:35:39.196Z,976.09
2023-04-01T10:36:39.123Z,976.11
2023-04-01T10:37:39.194Z,976.15
2023-04-01T10:38:39.271Z,976.12
2023-04-01T10:42:44.599Z,976.21
2023-04-01T10:43:32.838Z,976.18
2023-04-01T10:44:32.870Z,976.23
2023-04-01T10:45:33.222Z,976.20
2023-04-01T10:46:32.960Z,976.17
2023-04-01T10:47:32.863Z,976.17
2023-04-01T10:48:32.760Z,976.19
2023-04-01T10:49:32.738Z,976.16
2023-04-01T10:50:32.756Z,976.15
2023-04-01T10:51:32.738Z,976.12
2023-04-01T10:52:32.758Z,976.10
2023-04-01T10:53:32.721Z,976.12
2023-04-01T10:54:32.684Z,976.14
2023-04-01T10:55:33.123Z,976.09
2023-04-01T10:56:32.664Z,976.16
2023-04-01T10:57:32.747Z,976.09
2023-04-01T10:58:33.822Z,976.13
2023-04-01T10:59:34.696Z,976.14
2023-04-01T11:00:33.973Z,976.05
2023-04-01T11:01:33.841Z,976.10
2023-04-01T11:02:33.878Z,976.14
2023-04-01T11:03:33.922Z,976.07
2023-04-01T11:04:33.857Z,976.09
2023-04-01T11:05:34.022Z,976.10
2023-04-01T11:06:33.774Z,976.11
2023-04-01T11:07:33.839Z,976.12
2023-04-01T11:08:33.732Z,976.05
2023-04-01T11:09:33.679Z,976.09
2023-04-01T11:10:34.657Z,976.15
2023-04-01T11:11:33.742Z,976.09
2023-04-01T11:12:33.709Z,976.16
2023-04-01T11:13:33.690Z,976.09
2023-04-01T11:14:33.632Z,976.13
2023-04-01T11:15:33.966Z,976.11
2023-04-01T11:16:33.774Z,976.19
2023-04-01T11:17:34.182Z,976.17
2023-04-01T11:18:33.609Z,976.15
2023-04-01T11:19:33.588Z,976.18
2023-04-01T11:20:33.696Z,976.21
2023-04-01T11:21:33.666Z,976.24
2023-04-01T11:22:33.605Z,976.17
2023-04-01T11:23:33.688Z,976.22
2023-04-01T11:24:33.799Z,976.27
2023-04-01T11:25:33.846Z,976.24
2023-04-01T11:26:33.602Z,976.28
2023-04-01T11:27:33.599Z,976.24
2023-04-01T11:28:33.660Z,976.29
2023-04-01T11:29:33.556Z,976.27
2023-04-01T11:30:33.541Z,976.26
2023-04-01T11:31:34.085Z,976.32
2023-04-01T11:32:33.516Z,976.35
2023-04-01T11:33:33.480Z,976.37
2023-04-01T11:34:33.537Z,976.30
2023-04-01T11:35:33.613Z,976.34
2023-04-01T11:36:33.534Z,976.31
2023-04-01T11:37:33.392Z,976.36
2023-04-01T11:38:33.428Z,976.32
2023-04-01T11:39:33.436Z,976.35
2023-04-01T11:40:33.466Z,976.36
2023-04-01T11:41:34.500Z,976.35
2023-04-01T11:42:33.371Z,976.42
2023-04-01T11:43:34.083Z,976.43
2023-04-01T11:44:34.713Z,976.41
2023-04-01T11:45:33.528Z,976.40
2023-04-01T11:46:33.426Z,976.44
2023-04-01T11:47:33.384Z,976.50
2023-04-01T11:48:33.309Z,976.50
2023-04-01T11:49:33.405Z,976.55
2023-04-01T11:50:33.344Z,976.51
2023-04-01T11:51:33.380Z,976.52
2023-04-01T11:52:33.316Z,976.51
2023-04-01T11:53:33.255Z,976.54
2023-04-01T11:54:33.324Z,976.55
2023-04-01T11:55:33.387Z,976.54
2023-04-01T11:56:33.258Z,976.51
2023-04-01T11:57:33.353Z,976.60
2023-04-01T11:58:33.264Z,976.61
2023-04-01T11:59:33.208Z,976.61
2023-04-01T12:00:33.788Z,976.59
2023-04-01T12:01:33.158Z,976.63
2023-04-01T12:02:33.242Z,976.64
2023-04-01T12:03:34.307Z,976.67
2023-04-01T12:04:33.253Z,976.63
2023-04-01T12:05:33.442Z,976.65
2023-04-01T12:06:33.145Z,976.66
2023-04-01T12:07:33.121Z,976.64
2023-04-01T12:08:33.207Z,976.66
2023-04-01T12:09:33.161Z,976.62
2023-04-01T12:10:34.836Z,976.61
2023-04-01T12:11:33.098Z,976.71
2023-04-01T12:12:33.136Z,976.68
2023-04-01T12:13:33.060Z,976.69
2023-04-01T12:14:33.039Z,976.70
2023-04-01T12:15:33.229Z,976.65
2023-04-01T12:16:33.144Z,976.63
2023-04-01T12:17:33.783Z,976.74
2023-04-01T12:18:32.989Z,976.72
2023-04-01T12:19:32.994Z,976.70
2023-04-01T12:20:32.994Z,976.77
2023-04-01T12:21:32.970Z,976.76
2023-04-01T12:22:33.944Z,976.77
2023-04-01T12:23:33.984Z,976.77
2023-04-01T12:24:32.964Z,976.73
2023-04-01T12:25:33.047Z,976.80
2023-04-01T12:26:33.034Z,976.83
2023-04-01T12:27:32.916Z,976.81
2023-04-01T12:28:32.902Z,976.82
2023-04-01T12:29:32.886Z,976.82
2023-04-01T12:30:32.954Z,976.87
2023-04-01T12:31:32.969Z,976.87
2023-04-01T12:32:32.929Z,976.79
2023-04-01T12:33:32.896Z,976.91
2023-04-01T12:34:32.855Z,976.93
2023-04-01T12:35:33.260Z,976.94
2023-04-01T12:36:32.830Z,976.87
2023-04-01T12:37:32.823Z,976.91
2023-04-01T12:38:32.857Z,976.88
2023-04-01T12:39:32.800Z,976.90
2023-04-01T12:40:34.131Z,976.90
2023-04-01T12:41:32.862Z,976.92
2023-04-01T12:42:32.941Z,976.94
2023-04-01T12:43:32.805Z,976.91
2023-04-01T12:44:32.768Z,976.89
2023-04-01T12:45:33.040Z,976.91
2023-04-01T12:46:32.817Z,976.99
2023-04-01T12:47:32.748Z,976.96
2023-04-01T12:48:32.720Z,976.93
2023-04-01T12:49:32.817Z,976.99
2023-04-01T12:50:32.705Z,976.97
2023-04-01T12:51:32.680Z,977.03
2023-04-01T12:52:32.726Z,977.00
2023-04-01T12:53:32.654Z,976.97
2023-04-01T12:54:32.660Z,976.96
2023-04-01T12:55:32.804Z,976.99
2023-04-01T12:56:32.684Z,976.96
2023-04-01T12:57:32.724Z,976.99
2023-04-01T12:58:32.650Z,977.03
2023-04-01T12:59:32.641Z,977.02
2023-04-01T13:00:32.599Z,977.08
2023-04-01T13:01:32.652Z,977.09
2023-04-01T13:02:32.614Z,977.12
2023-04-01T13:03:33.348Z,977.12
2023-04-01T13:04:32.550Z,977.09
2023-04-01T13:05:32.768Z,977.08
2023-04-01T13:06:32.579Z,977.09
2023-04-01T13:07:32.524Z,977.14
2023-04-01T13:08:32.521Z,977.16
2023-04-01T13:09:32.533Z,977.16
2023-04-01T13:10:32.677Z,977.12
2023-04-01T13:11:32.521Z,977.20
2023-04-01T13:12:32.507Z,977.19
2023-04-01T13:13:32.464Z,977.18
2023-04-01T13:14:32.522Z,977.20
2023-04-01T13:15:32.530Z,977.16
2023-04-01T13:16:32.441Z,977.17
2023-04-01T13:17:32.474Z,977.19
2023-04-01T13:18:32.399Z,977.19
2023-04-01T13:19:32.501Z,977.17
2023-04-01T13:20:32.709Z,977.16
2023-04-01T13:21:33.483Z,977.19
2023-04-01T13:22:32.373Z,977.19
2023-04-01T13:23:32.384Z,977.21
2023-04-01T13:24:32.363Z,977.22
2023-04-01T13:25:32.380Z,977.24
2023-04-01T13:26:32.413Z,977.18
2023-04-01T13:27:32.329Z,977.23
2023-04-01T13:28:32.426Z,977.23
2023-04-01T13:29:32.352Z,977.22
2023-04-01T13:30:32.769Z,977.26
2023-04-01T13:31:32.484Z,977.26
2023-04-01T13:32:43.469Z,977.26
2023-04-01T13:33:34.294Z,977.20
2023-04-01T13:34:32.295Z,977.27
2023-04-01T13:35:32.322Z,977.21
2023-04-01T13:36:32.278Z,977.19
2023-04-01T13:37:33.792Z,977.24
2023-04-01T13:38:32.723Z,977.22
2023-04-01T13:39:32.231Z,977.21
2023-04-01T13:40:32.487Z,977.24
2023-04-01T13:41:32.296Z,977.26
2023-04-01T13:42:32.203Z,977.24
2023-04-01T13:43:32.206Z,977.29
2023-04-01T13:44:32.163Z,977.20
2023-04-01T13:45:32.755Z,977.27
2023-04-01T13:46:32.295Z,977.29
2023-04-01T13:47:32.828Z,977.30
2023-04-01T13:48:32.182Z,977.24
2023-04-01T13:49:32.137Z,977.32
2023-04-01T13:50:32.403Z,977.28
2023-04-01T13:51:32.124Z,977.27
2023-04-01T13:52:32.144Z,977.30
2023-04-01T13:53:32.068Z,977.32
2023-04-01T13:54:32.760Z,977.31
2023-04-01T13:55:32.046Z,977.35
2023-04-01T13:56:32.105Z,977.29
2023-04-01T13:57:32.143Z,977.34
2023-04-01T13:58:32.075Z,977.32
2023-04-01T13:59:32.024Z,977.33
2023-04-01T14:00:32.210Z,977.30
2023-04-01T14:01:32.111Z,977.38
2023-04-01T14:02:32.008Z,977.32
2023-04-01T14:45:28.303Z,977.78
2023-04-01T14:46:29.484Z,977.71
2023-04-01T14:47:29.586Z,977.72
2023-04-01T14:48:30.473Z,977.75
2023-04-01T14:49:29.497Z,977.77
2023-04-01T14:50:29.371Z,977.71
2023-04-01T14:51:29.496Z,977.76
2023-04-01T14:52:29.631Z,977.75
2023-04-01T14:53:29.513Z,977.76
2023-04-01T14:54:29.296Z,977.72
2023-04-01T14:55:30.127Z,977.66
2023-04-01T14:56:31.480Z,977.70
2023-04-01T14:57:30.078Z,977.81
2023-04-01T14:58:29.392Z,977.76
2023-04-01T14:59:29.792Z,977.75
2023-04-01T15:00:30.658Z,977.81
2023-04-01T15:01:29.463Z,977.77
2023-04-01T15:02:29.345Z,977.83
2023-04-01T15:03:29.252Z,977.82
2023-04-01T15:04:29.456Z,977.88
2023-04-01T15:05:29.221Z,977.83
2023-04-01T15:06:29.206Z,977.81
2023-04-01T15:07:29.380Z,977.83
2023-04-01T15:08:29.297Z,977.83
2023-04-01T15:09:29.176Z,977.86
2023-04-01T15:10:29.143Z,977.86
2023-04-01T15:11:29.418Z,977.91
2023-04-01T15:12:29.118Z,977.93
2023-04-01T15:13:29.538Z,977.87
2023-04-01T15:14:30.113Z,977.92
2023-04-01T15:15:29.095Z,977.93
2023-04-01T15:16:30.121Z,977.96
2023-04-01T15:17:29.130Z,977.99
2023-04-01T15:18:29.312Z,977.99
2023-04-01T15:19:29.052Z,978.00
2023-04-01T15:20:29.107Z,977.97
2023-04-01T15:21:29.650Z,978.00
2023-04-01T15:22:29.096Z,978.02
2023-04-01T15:23:29.767Z,978.00
2023-04-01T15:24:29.170Z,978.03
2023-04-01T15:25:29.144Z,978.03
2023-04-01T15:26:29.267Z,978.06
2023-04-01T15:27:28.961Z,978.05
2023-04-01T15:28:28.996Z,978.06
2023-04-01T15:29:29.201Z,978.07
2023-04-01T15:30:28.954Z,978.20
2023-04-01T15:31:29.049Z,978.19
2023-04-01T15:32:29.979Z,978.18
2023-04-01T15:33:28.874Z,978.15
2023-04-01T15:34:29.029Z,978.21
2023-04-01T15:35:28.926Z,978.18
2023-04-01T15:36:28.953Z,978.32
2023-04-01T15:37:29.083Z,978.29
2023-04-01T15:38:28.895Z,978.25
2023-04-01T15:39:29.050Z,978.34
2023-04-01T15:40:28.984Z,978.34
2023-04-01T15:41:28.979Z,978.32
2023-04-01T15:42:28.878Z,978.34
2023-04-01T15:43:28.961Z,978.37
2023-04-01T15:44:29.692Z,978.37
2023-04-01T15:45:28.864Z,978.36
2023-04-01T15:46:28.894Z,978.43
2023-04-01T15:47:28.870Z,978.39
2023-04-01T15:48:28.866Z,978.40
2023-04-01T15:49:28.866Z,978.46
2023-04-01T15:50:28.962Z,978.42
2023-04-01T15:51:29.243Z,978.47
2023-04-01T15:52:28.841Z,978.49
2023-04-01T15:53:28.912Z,978.43
2023-04-01T15:54:28.735Z,978.52
2023-04-01T15:55:28.768Z,978.56
2023-04-01T15:56:28.983Z,978.52
2023-04-01T15:57:29.033Z,978.49
2023-04-01T15:58:28.792Z,978.49
2023-04-01T15:59:28.733Z,978.51
2023-04-01T16:00:28.935Z,978.54
2023-04-01T16:01:28.920Z,978.50
2023-04-01T16:02:30.691Z,978.59
2023-04-01T16:03:28.776Z,978.54
2023-04-01T16:04:28.684Z,978.59
2023-04-01T16:05:28.598Z,978.58
2023-04-01T16:06:28.682Z,978.63
2023-04-01T16:07:28.659Z,978.63
2023-04-01T16:08:28.564Z,978.70
2023-04-01T16:09:28.737Z,978.69
2023-04-01T16:10:28.696Z,978.69
2023-04-01T16:11:28.568Z,978.78
2023-04-01T16:12:28.877Z,978.70
2023-04-01T16:13:28.698Z,978.75
2023-04-01T16:14:28.589Z,978.78
2023-04-01T16:15:28.551Z,978.79
2023-04-01T16:16:28.756Z,978.89
2023-04-01T16:17:28.675Z,978.84
2023-04-01T16:18:28.460Z,978.89
2023-04-01T16:19:28.626Z,978.85
2023-04-01T16:20:28.409Z,978.87
2023-04-01T16:21:28.460Z,978.90
2023-04-01T16:22:28.452Z,978.81
2023-04-01T16:23:28.414Z,978.87
2023-04-01T16:24:28.380Z,978.90
2023-04-01T16:25:28.378Z,978.91
2023-04-01T16:26:28.370Z,978.90
2023-04-01T16:27:28.358Z,978.85
2023-04-01T16:28:29.079Z,978.93
2023-04-01T16:29:28.360Z,978.91
2023-04-01T16:30:28.297Z,978.93
2023-04-01T16:31:28.316Z,978.98
2023-04-01T16:32:28.300Z,978.93
2023-04-01T16:33:28.287Z,979.00
2023-04-01T16:34:28.274Z,979.01
2023-04-01T16:35:28.323Z,979.01
2023-04-01T16:36:28.318Z,979.04
2023-04-01T16:37:28.279Z,979.03
2023-04-01T16:38:28.254Z,979.05
2023-04-01T16:39:28.406Z,979.06
2023-04-01T16:40:28.287Z,979.07
2023-04-01T16:41:28.252Z,979.10
2023-04-01T16:42:29.112Z,978.98
2023-04-01T16:43:28.297Z,979.05
2023-04-01T16:44:28.224Z,979.10
2023-04-01T16:45:28.239Z,979.12
2023-04-01T16:46:28.247Z,979.11
2023-04-01T16:47:28.264Z,979.15
2023-04-01T16:48:28.206Z,979.10
2023-04-01T16:49:29.073Z,979.22
2023-04-01T16:50:28.613Z,979.20
2023-04-01T16:51:28.158Z,979.28
2023-04-01T16:52:28.171Z,979.27
2023-04-01T16:53:28.068Z,979.26
2023-04-01T16:54:28.104Z,979.24
2023-04-01T16:55:28.085Z,979.36
2023-04-01T16:56:28.120Z,979.32
2023-04-01T16:57:28.187Z,979.38
2023-04-01T16:58:28.181Z,979.38
2023-04-01T16:59:28.351Z,979.38
2023-04-01T17:00:28.073Z,979.39
2023-04-01T17:01:28.127Z,979.40
2023-04-01T17:02:28.176Z,979.40
2023-04-01T17:03:28.018Z,979.38
2023-04-01T17:04:28.040Z,979.39
2023-04-01T17:05:28.977Z,979.47
2023-04-01T17:06:29.399Z,979.44
2023-04-01T17:07:28.021Z,979.45
2023-04-01T17:08:28.115Z,979.46
2023-04-01T17:09:27.964Z,979.42
2023-04-01T17:10:28.051Z,979.49
2023-04-01T17:11:27.990Z,979.46
2023-04-01T17:12:28.003Z,979.48
2023-04-01T17:13:27.892Z,979.50
2023-04-01T17:14:27.933Z,979.57
2023-04-01T17:15:27.914Z,979.56
2023-04-01T17:16:27.963Z,979.53
2023-04-01T17:17:28.071Z,979.62
2023-04-01T17:18:27.903Z,979.60
2023-04-01T17:19:27.871Z,979.61
2023-04-01T17:20:27.845Z,979.58
2023-04-01T17:21:27.906Z,979.60
2023-04-01T17:22:28.660Z,979.69
2023-04-01T17:23:27.935Z,979.63
2023-04-01T17:24:28.439Z,979.71
2023-04-01T17:25:27.812Z,979.68
2023-04-01T17:26:27.742Z,979.76
2023-04-01T17:27:27.821Z,979.76
2023-04-01T17:28:27.917Z,979.79
2023-04-01T17:29:27.824Z,979.79
2023-04-01T17:30:27.801Z,979.82
2023-04-01T17:31:27.870Z,979.80
2023-04-01T17:32:27.794Z,979.86
2023-04-01T17:33:27.747Z,979.82
2023-04-01T17:34:27.742Z,979.89
2023-04-01T17:35:27.731Z,979.89
2023-04-01T17:36:28.636Z,979.91
2023-04-01T17:37:27.711Z,979.92
2023-04-01T17:38:27.764Z,979.98
2023-04-01T17:39:27.677Z,980.00
2023-04-01T17:40:27.686Z,979.96
2023-04-01T17:41:27.748Z,980.02
2023-04-01T17:42:27.680Z,979.99
2023-04-01T17:43:27.698Z,980.02
2023-04-01T17:44:27.597Z,980.02
2023-04-01T17:45:27.729Z,980.04
2023-04-01T17:46:27.663Z,980.07
2023-04-01T17:47:27.644Z,980.06
2023-04-01T17:48:27.584Z,980.11
2023-04-01T17:49:27.557Z,980.11
2023-04-01T17:50:27.647Z,980.14
2023-04-01T17:51:27.583Z,980.15
2023-04-01T17:52:27.670Z,980.18
2023-04-01T17:53:27.534Z,980.20
2023-04-01T17:54:27.533Z,980.23
2023-04-01T17:55:27.491Z,980.24
2023-04-01T17:56:27.491Z,980.26
2023-04-01T17:57:27.543Z,980.25
2023-04-01T17:58:27.502Z,980.28
2023-04-01T17:59:27.517Z,980.31
2023-04-01T18:00:30.139Z,980.28
2023-04-01T18:01:28.552Z,980.33
2023-04-01T18:02:27.620Z,980.33
2023-04-01T18:03:27.509Z,980.36
2023-04-01T18:04:28.153Z,980.36
2023-04-01T18:05:27.461Z,980.39
2023-04-01T18:06:27.401Z,980.40
2023-04-01T18:07:27.477Z,980.43
2023-04-01T18:08:27.424Z,980.40
2023-04-01T18:09:27.406Z,980.41
2023-04-01T18:10:27.397Z,980.44
2023-04-01T18:11:27.543Z,980.48
2023-04-01T18:12:27.406Z,980.47
2023-04-01T18:13:27.439Z,980.48
2023-04-01T18:14:27.359Z,980.50
2023-04-01T18:15:27.348Z,980.52
2023-04-01T18:16:27.433Z,980.47
2023-04-01T18:17:27.515Z,980.51
2023-04-01T18:18:27.454Z,980.50
2023-04-01T18:19:29.887Z,980.51
2023-04-01T18:20:28.192Z,980.57
2023-04-01T18:21:28.236Z,980.57
2023-04-01T18:27:23.224Z,980.77
2023-04-01T18:28:32.372Z,980.75
2023-04-01T18:29:24.900Z,980.77
2023-04-01T18:30:24.822Z,980.72
2023-04-01T18:33:49.712Z,980.90
2023-04-01T18:38:30.462Z,980.93
2023-04-01T18:39:42.005Z,981.01
2023-04-01T18:41:59.241Z,981.03
2023-04-01T18:43:05.623Z,980.98
2023-04-01T18:44:09.165Z,981.05
2023-04-01T18:46:30.380Z,981.07
2023-04-01T18:47:45.056Z,981.16
2023-04-01T18:48:41.469Z,981.13
2023-04-01T18:49:40.570Z,981.15
2023-04-01T18:52:26.594Z,981.16
2023-04-01T18:53:35.634Z,981.21
2023-04-01T18:54:35.768Z,981.21
2023-04-01T18:55:40.976Z,981.21
2023-04-01T18:58:00.844Z,981.28
2023-04-01T19:03:12.986Z,981.38
2023-04-01T19:07:22.129Z,981.44
2023-04-01T19:12:52.316Z,981.64
2023-04-01T19:16:31.898Z,981.68
2023-04-01T19:19:51.441Z,981.74
2023-04-01T19:22:53.261Z,981.77
2023-04-01T19:25:20.212Z,981.81
2023-04-01T19:28:21.911Z,981.80
2023-04-01T19:30:48.568Z,981.86
2023-04-01T19:31:58.494Z,981.86
2023-04-01T19:32:58.856Z,981.85
2023-04-01T19:33:48.569Z,981.87
2023-04-01T19:34:48.839Z,981.88
2023-04-01T19:35:57.389Z,981.85
2023-04-01T19:36:57.213Z,981.85
2023-04-01T19:39:41.345Z,981.84
2023-04-01T19:40:49.157Z,981.84
2023-04-01T19:41:41.683Z,981.91
2023-04-01T19:42:41.586Z,981.82
2023-04-01T19:48:38.795Z,982.01
2023-04-01T19:51:12.421Z,982.05
2023-04-01T19:52:27.690Z,982.09
2023-04-01T19:53:12.976Z,982.09
2023-04-01T19:56:29.162Z,982.15
2023-04-01T19:58:53.611Z,982.15
2023-04-01T20:06:05.809Z,982.31
2023-04-01T20:11:32.098Z,982.44
2023-04-01T20:13:02.374Z,982.42
2023-04-01T20:15:41.295Z,982.48
2023-04-01T20:18:20.546Z,982.53
2023-04-01T20:21:24.051Z,982.60
2023-04-01T20:24:03.703Z,982.60
2023-04-01T20:26:43.459Z,982.69
2023-04-01T20:27:51.581Z,982.70
2023-04-01T20:31:40.177Z,982.75
2023-04-01T20:34:38.662Z,982.83
2023-04-01T20:38:48.537Z,982.78
2023-04-01T20:40:03.742Z,982.86
2023-04-01T20:41:50.892Z,982.83
2023-04-01T20:42:02.689Z,982.92
2023-04-01T20:43:17.575Z,982.86
2023-04-01T20:48:44.295Z,983.01
2023-04-01T20:54:34.633Z,983.08
2023-04-01T20:57:24.162Z,983.08
2023-04-01T21:03:04.866Z,983.08
2023-04-01T21:10:54.976Z,983.25
2023-04-01T21:14:15.648Z,983.30
2023-04-01T21:18:25.454Z,983.35
2023-04-01T21:22:25.007Z,983.34
2023-04-01T21:34:46.949Z,983.65
2023-04-01T21:37:59.107Z,983.62
2023-04-01T21:43:02.946Z,983.75
2023-04-01T21:46:25.371Z,983.70
2023-04-01T21:47:38.507Z,983.76
2023-04-01T21:48:38.912Z,983.80
2023-04-01T21:51:13.428Z,983.84
2023-04-01T21:52:13.914Z,983.86
2023-04-01T21:53:23.053Z,983.87
2023-04-01T21:54:22.541Z,983.85
2023-04-01T21:57:04.252Z,983.87
2023-04-01T21:58:13.709Z,983.93
2023-04-01T22:00:59.256Z,983.90
2023-04-01T22:02:08.359Z,983.94
2023-04-01T22:04:49.183Z,984.04
2023-04-01T22:07:25.810Z,984.03